Time;durP1;ratioP1;P1;durP2;ratioP2;P2;SDS_P1;SDS_P2;PMS_P1;PMS_P2;Temp;Humidity;BMP_temperature;BMP_pressure;BME280_temperature;BME280_humidity;BME280_pressure;Samples;Min_cycle;Max_cycle;Signal;HPM_P1;HPM_P2
2023/07/28 00:00:14;;;;;;;4.43;1.70;;;17.10;99.90;;;;;;5005358;28;20029;-79
2023/07/28 00:02:40;;;;;;;1.73;1.20;;;17.10;99.90;;;;;;4987751;28;20109;-79
2023/07/28 00:05:05;;;;;;;2.78;2.03;;;17.10;99.90;;;;;;5004209;28;20076;-79
2023/07/28 00:07:33;;;;;;;2.28;1.80;;;17.10;99.90;;;;;;4990192;28;20120;-80
2023/07/28 00:09:59;;;;;;;2.83;1.40;;;17.10;99.90;;;;;;4992399;28;20029;-80
2023/07/28 00:12:24;;;;;;;2.33;1.60;;;17.10;99.90;;;;;;5006235;28;20029;-80
2023/07/28 00:14:50;;;;;;;1.88;1.30;;;17.20;99.90;;;;;;5006664;28;20452;-80
2023/07/28 00:17:16;;;;;;;2.45;1.52;;;17.20;99.90;;;;;;4972072;28;20030;-80
2023/07/28 00:19:41;;;;;;;2.90;1.38;;;17.20;99.90;;;;;;5004740;28;20079;-80
2023/07/28 00:22:07;;;;;;;2.17;1.65;;;17.20;99.90;;;;;;4986922;28;20042;-80
2023/07/28 00:24:32;;;;;;;1.92;1.60;;;17.20;99.90;;;;;;4994102;28;20040;-80
2023/07/28 00:26:58;;;;;;;1.52;0.90;;;17.20;99.90;;;;;;5005876;28;20029;-80
2023/07/28 00:29:23;;;;;;;2.35;1.98;;;17.10;99.90;;;;;;5005634;28;20025;-80
2023/07/28 00:31:49;;;;;;;4.15;1.70;;;17.10;99.90;;;;;;5006755;28;20400;-80
2023/07/28 00:34:14;;;;;;;3.40;1.92;;;17.10;99.90;;;;;;4985715;28;20079;-80
2023/07/28 00:36:40;;;;;;;2.85;1.80;;;17.10;99.90;;;;;;4980094;28;20026;-80
2023/07/28 00:39:06;;;;;;;3.78;1.55;;;17.10;99.90;;;;;;5004918;28;20034;-80
2023/07/28 00:41:31;;;;;;;1.10;1.00;;;17.10;99.90;;;;;;5001896;28;20416;-80
2023/07/28 00:43:57;;;;;;;1.73;1.27;;;17.10;99.90;;;;;;4976999;28;20053;-80
2023/07/28 00:46:23;;;;;;;1.20;1.10;;;17.20;99.90;;;;;;5001599;28;20057;-80
2023/07/28 00:48:48;;;;;;;1.90;1.05;;;17.20;99.90;;;;;;4987245;28;20034;-79
2023/07/28 00:51:14;;;;;;;1.65;1.55;;;17.10;99.90;;;;;;5004167;28;20765;-80
2023/07/28 00:53:39;;;;;;;1.23;1.13;;;17.10;99.90;;;;;;5004314;28;20765;-80
2023/07/28 00:56:05;;;;;;;1.95;1.15;;;17.10;99.90;;;;;;4990577;28;20057;-80
2023/07/28 00:58:31;;;;;;;1.40;1.30;;;17.10;99.90;;;;;;4988024;28;20061;-80
2023/07/28 01:00:56;;;;;;;1.35;1.10;;;17.10;99.90;;;;;;5003469;28;20057;-81
2023/07/28 01:03:22;;;;;;;1.33;1.10;;;17.10;99.90;;;;;;4988536;28;20052;-80
2023/07/28 01:05:55;;;;;;;1.65;1.30;;;17.10;99.90;;;;;;4976312;28;20033;-79
2023/07/28 01:08:21;;;;;;;1.40;1.20;;;17.10;99.90;;;;;;5001242;28;20041;-80
2023/07/28 01:10:46;;;;;;;1.40;1.30;;;17.10;99.90;;;;;;5007000;28;20029;-80
2023/07/28 01:13:12;;;;;;;3.38;1.70;;;17.20;99.90;;;;;;5003515;28;20416;-80
2023/07/28 01:15:37;;;;;;;2.55;1.55;;;17.10;99.90;;;;;;5021961;28;20030;-80
2023/07/28 01:18:03;;;;;;;6.05;1.83;;;17.20;99.90;;;;;;5027457;28;20025;-80
2023/07/28 01:20:29;;;;;;;4.75;1.90;;;17.10;99.90;;;;;;4994932;28;20045;-80
2023/07/28 01:23:01;;;;;;;1.27;1.17;;;17.20;99.90;;;;;;4993968;28;20467;-80
2023/07/28 01:26:04;;;;;;;1.35;1.15;;;17.10;99.90;;;;;;5025620;28;20049;-80
2023/07/28 01:28:30;;;;;;;2.20;1.85;;;17.10;99.90;;;;;;5028138;28;20033;-80
2023/07/28 01:30:57;;;;;;;1.73;1.40;;;17.10;99.90;;;;;;5027984;28;20083;-80
2023/07/28 01:33:22;;;;;;;3.22;2.95;;;17.10;99.90;;;;;;4993607;28;20037;-80
2023/07/28 01:35:48;;;;;;;1.70;1.58;;;17.10;99.90;;;;;;4994811;28;20030;-80
2023/07/28 01:38:13;;;;;;;6.00;1.42;;;17.10;99.90;;;;;;4976503;28;20033;-79
2023/07/28 01:40:39;;;;;;;2.08;1.73;;;17.10;99.90;;;;;;5001444;28;20040;-80
2023/07/28 01:43:04;;;;;;;2.47;1.92;;;17.10;99.90;;;;;;4990765;28;20029;-80
2023/07/28 01:45:30;;;;;;;1.48;1.38;;;17.20;99.90;;;;;;5027353;28;20036;-80
2023/07/28 01:47:55;;;;;;;1.60;1.42;;;17.10;99.90;;;;;;4994290;28;20026;-80
2023/07/28 01:50:21;;;;;;;2.75;2.10;;;17.30;99.90;;;;;;4981382;28;20064;-80
2023/07/28 01:52:46;;;;;;;1.27;1.05;;;17.10;99.90;;;;;;4982899;28;20037;-80
2023/07/28 01:55:12;;;;;;;3.78;1.17;;;17.10;99.90;;;;;;5028257;28;20076;-80
2023/07/28 01:57:39;;;;;;;2.67;0.93;;;17.00;99.90;;;;;;4995495;28;20034;-80
2023/07/28 02:00:05;;;;;;;2.85;1.33;;;17.10;99.90;;;;;;5010732;28;20547;-80
2023/07/28 02:02:32;;;;;;;1.70;1.60;;;17.10;99.90;;;;;;5028773;28;20045;-80
2023/07/28 02:04:57;;;;;;;2.15;1.95;;;17.10;99.90;;;;;;4998334;28;20508;-80
2023/07/28 02:07:23;;;;;;;2.75;2.20;;;17.10;99.90;;;;;;4999135;28;20179;-80
2023/07/28 02:09:48;;;;;;;1.85;1.70;;;17.10;99.90;;;;;;5011227;28;20033;-80
2023/07/28 02:12:14;;;;;;;1.88;1.40;;;17.10;99.90;;;;;;4996357;28;20025;-80
2023/07/28 02:14:39;;;;;;;1.67;1.58;;;17.20;99.90;;;;;;4992088;28;20456;-80
2023/07/28 02:17:05;;;;;;;1.90;1.27;;;17.10;99.90;;;;;;4996943;28;20030;-80
2023/07/28 02:19:31;;;;;;;1.40;1.15;;;17.20;99.90;;;;;;5012606;28;20485;-80
2023/07/28 02:21:56;;;;;;;1.05;1.05;;;17.10;99.90;;;;;;5008655;28;20044;-80
2023/07/28 02:24:22;;;;;;;2.60;1.13;;;17.10;99.90;;;;;;4997699;28;20037;-80
2023/07/28 02:26:47;;;;;;;1.67;1.02;;;17.10;99.90;;;;;;4993885;28;20022;-80
2023/07/28 02:29:13;;;;;;;1.15;1.02;;;17.10;99.90;;;;;;4974961;28;20037;-80
2023/07/28 02:31:38;;;;;;;1.35;1.25;;;17.00;99.90;;;;;;4990422;28;20106;-80
2023/07/28 02:34:04;;;;;;;0.90;0.90;;;17.10;99.90;;;;;;4991633;28;20095;-80
2023/07/28 02:36:29;;;;;;;0.80;0.47;;;17.00;99.90;;;;;;5008343;28;20045;-80
2023/07/28 02:38:55;;;;;;;1.20;1.10;;;17.20;99.90;;;;;;5009860;28;20038;-80
2023/07/28 02:41:50;;;;;;;1.30;1.20;;;17.10;99.90;;;;;;4990036;28;20033;-80
2023/07/28 02:44:15;;;;;;;2.78;1.00;;;17.10;99.90;;;;;;4992346;28;20030;-80
2023/07/28 02:46:41;;;;;;;3.20;1.23;;;17.10;99.90;;;;;;4986795;28;20037;-80
2023/07/28 02:49:07;;;;;;;2.58;1.00;;;17.20;99.90;;;;;;4985581;28;20049;-80
2023/07/28 02:51:34;;;;;;;1.13;1.00;;;17.10;99.90;;;;;;5010713;28;20124;-80
2023/07/28 02:53:59;;;;;;;0.85;0.82;;;17.20;99.90;;;;;;5022196;28;20034;-80
2023/07/28 02:56:25;;;;;;;1.27;1.17;;;17.10;99.90;;;;;;4989296;28;20496;-81
2023/07/28 02:58:50;;;;;;;0.90;0.70;;;17.10;99.90;;;;;;5023516;28;20033;-80
2023/07/28 03:01:17;;;;;;;0.82;0.82;;;17.20;99.90;;;;;;4972762;28;20034;-80
2023/07/28 03:03:42;;;;;;;1.25;0.82;;;17.10;99.90;;;;;;4980837;28;20093;-80
2023/07/28 03:06:08;;;;;;;1.45;1.00;;;17.30;99.90;;;;;;5005833;28;20034;-81
2023/07/28 03:08:33;;;;;;;0.60;0.60;;;17.20;99.90;;;;;;4994495;28;20049;-80
2023/07/28 03:11:02;;;;;;;0.80;0.80;;;17.20;99.90;;;;;;5022714;28;20038;-81
2023/07/28 03:13:28;;;;;;;1.02;0.82;;;17.20;99.90;;;;;;4991102;28;20030;-80
2023/07/28 03:15:53;;;;;;;0.75;0.75;;;17.20;99.90;;;;;;5023504;28;20029;-80
2023/07/28 03:18:19;;;;;;;1.55;0.90;;;17.10;99.90;;;;;;5024476;28;20033;-80
2023/07/28 03:20:46;;;;;;;1.73;0.70;;;17.10;99.90;;;;;;5006145;28;20796;-80
2023/07/28 03:23:11;;;;;;;3.08;0.70;;;17.10;99.90;;;;;;5007950;28;20497;-80
2023/07/28 03:25:37;;;;;;;0.80;0.80;;;17.10;99.90;;;;;;5004024;28;20040;-80
2023/07/28 03:28:02;;;;;;;1.90;0.70;;;17.10;99.90;;;;;;5022915;28;20033;-80
2023/07/28 03:30:28;;;;;;;1.00;0.93;;;17.10;99.90;;;;;;5024615;28;20108;-80
2023/07/28 03:32:53;;;;;;;2.45;0.60;;;17.10;99.90;;;;;;4986638;28;20036;-81
2023/07/28 03:35:19;;;;;;;0.50;0.50;;;17.20;99.90;;;;;;4989305;28;20025;-81
2023/07/28 03:37:45;;;;;;;0.60;0.55;;;17.10;99.90;;;;;;5003854;28;20053;-81
2023/07/28 03:40:10;;;;;;;0.50;0.50;;;17.20;99.90;;;;;;4989711;28;20022;-80
2023/07/28 03:42:36;;;;;;;0.60;0.60;;;17.20;99.90;;;;;;4990831;28;20041;-80
2023/07/28 03:45:01;;;;;;;0.93;0.50;;;17.20;99.90;;;;;;4986099;28;20029;-80
2023/07/28 03:47:30;;;;;;;1.30;0.40;;;17.20;99.90;;;;;;4985458;28;20048;-81
2023/07/28 03:49:55;;;;;;;0.50;0.50;;;17.20;99.90;;;;;;4990069;28;20044;-80
2023/07/28 03:52:21;;;;;;;0.60;0.50;;;17.20;99.90;;;;;;5003444;28;20393;-80
2023/07/28 03:54:46;;;;;;;0.50;0.50;;;17.20;99.90;;;;;;4988911;28;20471;-80
2023/07/28 03:57:12;;;;;;;0.70;0.70;;;17.20;99.90;;;;;;5023338;28;20122;-80
2023/07/28 03:59:37;;;;;;;1.95;0.38;;;17.20;99.90;;;;;;5006585;28;20512;-80
2023/07/28 04:02:03;;;;;;;0.47;0.40;;;17.20;99.90;;;;;;5005900;28;20636;-80
2023/07/28 04:04:29;;;;;;;0.50;0.50;;;17.20;99.90;;;;;;5021520;28;20661;-79
2023/07/28 04:06:54;;;;;;;0.55;0.50;;;17.20;99.90;;;;;;5023156;28;20128;-80
2023/07/28 04:09:20;;;;;;;1.08;0.70;;;17.10;99.90;;;;;;4987094;28;20473;-80
2023/07/28 04:11:46;;;;;;;3.25;0.93;;;17.20;99.90;;;;;;4988160;28;20072;-80
2023/07/28 04:14:11;;;;;;;1.27;0.52;;;17.20;99.90;;;;;;4976926;28;20030;-80
2023/07/28 04:16:37;;;;;;;0.85;0.47;;;17.20;99.90;;;;;;4988771;28;20066;-80
2023/07/28 04:19:03;;;;;;;1.38;0.43;;;17.20;99.90;;;;;;4990278;28;20048;-80
2023/07/28 04:21:28;;;;;;;0.60;0.60;;;17.20;99.90;;;;;;5024537;28;20087;-80
2023/07/28 04:23:54;;;;;;;0.60;0.30;;;17.20;99.90;;;;;;5002116;28;20037;-80
2023/07/28 04:26:19;;;;;;;0.40;0.30;;;17.20;99.90;;;;;;4989895;28;20132;-79
2023/07/28 04:28:45;;;;;;;0.30;0.30;;;17.30;99.90;;;;;;4979725;28;20065;-80
2023/07/28 04:31:11;;;;;;;0.40;0.40;;;17.30;99.90;;;;;;4989930;28;20087;-80
2023/07/28 04:33:36;;;;;;;0.30;0.30;;;17.40;99.90;;;;;;4990023;28;20095;-80
2023/07/28 04:36:05;;;;;;;0.30;0.30;;;17.30;99.90;;;;;;4989039;28;20029;-80
2023/07/28 04:38:31;;;;;;;0.40;0.30;;;17.30;99.90;;;;;;4989807;28;20037;-80
2023/07/28 04:40:56;;;;;;;0.40;0.40;;;17.30;99.90;;;;;;5020674;28;20565;-80
2023/07/28 04:43:22;;;;;;;0.30;0.30;;;17.30;99.90;;;;;;4992063;28;20746;-80
2023/07/28 04:45:50;;;;;;;0.30;0.30;;;17.30;99.90;;;;;;5004607;28;20036;-80
2023/07/28 04:48:16;;;;;;;0.40;0.40;;;17.30;99.90;;;;;;4987352;28;20034;-80
2023/07/28 04:50:41;;;;;;;0.40;0.40;;;17.30;99.90;;;;;;4975136;28;20051;-80
2023/07/28 04:53:07;;;;;;;0.30;0.30;;;17.30;99.90;;;;;;4983686;28;20046;-80
2023/07/28 04:55:32;;;;;;;0.30;0.20;;;17.40;99.90;;;;;;4980961;28;20083;-80
2023/07/28 04:57:58;;;;;;;0.30;0.30;;;17.40;99.90;;;;;;4980749;28;20032;-80
2023/07/28 05:00:23;;;;;;;0.30;0.30;;;17.40;99.90;;;;;;5000318;28;20038;-80
2023/07/28 05:02:49;;;;;;;0.35;0.35;;;17.50;99.90;;;;;;5002754;28;20030;-80
2023/07/28 05:05:15;;;;;;;0.68;0.30;;;17.50;99.90;;;;;;4977073;28;20033;-80
2023/07/28 05:07:40;;;;;;;0.30;0.30;;;17.40;99.90;;;;;;5001693;28;20056;-80
2023/07/28 05:10:06;;;;;;;0.30;0.30;;;17.50;99.90;;;;;;4985302;28;20615;-80
2023/07/28 05:12:32;;;;;;;0.40;0.40;;;17.50;99.90;;;;;;4988133;28;20037;-80
2023/07/28 05:14:57;;;;;;;1.75;0.43;;;17.50;99.90;;;;;;5021874;28;20481;-79
2023/07/28 05:17:23;;;;;;;0.57;0.40;;;17.50;99.90;;;;;;4977761;28;20447;-80
2023/07/28 05:19:50;;;;;;;0.57;0.50;;;17.50;99.90;;;;;;4988675;28;20469;-80
2023/07/28 05:22:15;;;;;;;0.47;0.47;;;17.60;99.90;;;;;;4987995;28;20041;-79
2023/07/28 05:24:41;;;;;;;4.57;0.70;;;17.60;99.90;;;;;;4987757;28;20081;-79
2023/07/28 05:27:06;;;;;;;0.65;0.57;;;17.60;99.90;;;;;;4988976;28;20045;-80
2023/07/28 05:29:32;;;;;;;1.00;0.95;;;17.60;99.90;;;;;;4978484;28;20061;-80
2023/07/28 05:32:00;;;;;;;0.60;0.60;;;17.60;99.90;;;;;;4987109;28;20034;-80
2023/07/28 05:34:26;;;;;;;2.15;0.93;;;17.80;99.90;;;;;;5001970;28;21378;-80
2023/07/28 05:36:51;;;;;;;0.57;0.57;;;17.70;99.90;;;;;;4988060;28;20087;-80
2023/07/28 05:39:17;;;;;;;0.93;0.93;;;17.70;99.90;;;;;;4986940;28;20034;-79
2023/07/28 05:41:42;;;;;;;1.65;0.60;;;17.70;99.90;;;;;;4973069;28;20396;-80
2023/07/28 05:44:08;;;;;;;1.90;1.00;;;17.80;99.90;;;;;;5004247;28;20033;-80
2023/07/28 05:46:34;;;;;;;1.85;1.52;;;17.80;99.90;;;;;;4969634;28;20639;-78
2023/07/28 05:48:59;;;;;;;1.95;1.33;;;17.80;99.90;;;;;;5002433;28;20041;-77
2023/07/28 05:51:25;;;;;;;2.67;1.20;;;17.80;99.90;;;;;;4987425;28;20168;-78
2023/07/28 05:53:51;;;;;;;1.20;1.10;;;17.90;99.90;;;;;;4989003;28;20049;-77
2023/07/28 05:56:16;;;;;;;1.35;1.25;;;17.90;99.90;;;;;;5003971;28;20029;-78
2023/07/28 05:58:42;;;;;;;6.05;1.75;;;17.90;99.90;;;;;;4983870;28;20048;-78
2023/07/28 06:01:27;;;;;;;1.48;1.15;;;18.00;99.90;;;;;;4989625;28;20041;-78
2023/07/28 06:03:55;;;;;;;0.90;0.90;;;18.00;99.90;;;;;;4984575;28;20592;-78
2023/07/28 06:06:21;;;;;;;1.45;1.10;;;18.00;99.90;;;;;;4989523;28;20036;-78
2023/07/28 06:08:47;;;;;;;1.42;0.90;;;18.00;99.90;;;;;;5010648;28;20033;-78
2023/07/28 06:11:13;;;;;;;0.63;0.63;;;18.00;99.90;;;;;;4991994;28;20041;-77
2023/07/28 06:13:38;;;;;;;0.90;0.90;;;18.00;99.90;;;;;;5005043;28;20067;-77
2023/07/28 06:16:04;;;;;;;0.77;0.77;;;18.00;99.90;;;;;;4991217;28;20037;-77
2023/07/28 06:18:29;;;;;;;0.95;0.95;;;18.00;99.90;;;;;;5004770;28;20120;-78
2023/07/28 06:20:55;;;;;;;1.42;1.05;;;18.00;99.90;;;;;;4982604;28;20037;-78
2023/07/28 06:23:21;;;;;;;1.65;1.27;;;18.00;99.90;;;;;;4991562;28;20129;-78
2023/07/28 06:25:46;;;;;;;3.58;2.45;;;18.00;99.90;;;;;;5005368;28;20071;-77
2023/07/28 06:28:12;;;;;;;4.55;3.78;;;18.00;99.90;;;;;;5001778;28;20052;-78
2023/07/28 06:30:38;;;;;;;3.95;3.10;;;18.00;99.90;;;;;;4990326;28;20393;-78
2023/07/28 06:33:06;;;;;;;3.97;3.35;;;18.10;99.90;;;;;;4991033;28;20413;-77
2023/07/28 06:35:31;;;;;;;2.75;2.42;;;18.10;99.90;;;;;;4994483;28;20436;-78
2023/07/28 06:37:57;;;;;;;4.65;3.22;;;18.20;99.90;;;;;;5005692;28;20030;-78
2023/07/28 06:40:23;;;;;;;3.58;3.00;;;18.20;99.90;;;;;;5021981;28;20392;-78
2023/07/28 06:42:48;;;;;;;7.70;4.55;;;18.30;99.90;;;;;;5006445;28;20396;-78
2023/07/28 06:45:14;;;;;;;3.40;2.60;;;18.30;99.90;;;;;;5001177;28;20508;-78
2023/07/28 06:47:39;;;;;;;2.92;2.60;;;18.40;99.90;;;;;;5022777;28;20436;-78
2023/07/28 06:50:05;;;;;;;3.55;3.10;;;18.40;99.90;;;;;;4976371;28;20389;-77
2023/07/28 06:52:31;;;;;;;3.40;3.10;;;18.50;99.90;;;;;;4989426;28;20583;-78
2023/07/28 06:54:56;;;;;;;2.83;2.60;;;18.50;99.90;;;;;;5016230;28;20484;-79
2023/07/28 06:57:22;;;;;;;4.70;2.80;;;18.50;99.90;;;;;;4979271;28;20670;-78
2023/07/28 06:59:48;;;;;;;3.42;3.00;;;18.50;99.90;;;;;;5004228;28;20033;-78
2023/07/28 07:02:14;;;;;;;2.40;2.20;;;18.50;99.90;;;;;;5005792;28;20040;-77
2023/07/28 07:04:39;;;;;;;4.38;2.90;;;18.60;99.90;;;;;;4990262;28;20844;-78
2023/07/28 07:07:05;;;;;;;4.40;2.55;;;18.60;99.90;;;;;;4992347;28;20522;-77
2023/07/28 07:09:30;;;;;;;4.88;3.90;;;18.70;99.90;;;;;;5003232;28;20446;-78
2023/07/28 07:11:56;;;;;;;3.85;3.17;;;18.60;99.90;;;;;;4990194;28;20044;-78
2023/07/28 07:14:22;;;;;;;3.00;2.75;;;18.60;99.90;;;;;;4948951;28;20070;-78
2023/07/28 07:16:48;;;;;;;3.20;2.90;;;18.60;99.90;;;;;;4983672;28;20033;-78
2023/07/28 07:19:15;;;;;;;3.75;3.22;;;18.70;99.90;;;;;;5024259;28;20115;-79
2023/07/28 07:21:41;;;;;;;6.65;4.00;;;18.70;99.90;;;;;;4990196;28;20037;-79
2023/07/28 07:24:07;;;;;;;3.38;3.08;;;18.80;99.90;;;;;;4984190;28;20033;-79
2023/07/28 07:26:33;;;;;;;4.28;3.85;;;18.90;99.90;;;;;;4972627;28;20049;-79
2023/07/28 07:28:58;;;;;;;7.05;5.60;;;18.90;99.90;;;;;;4970160;28;21113;-78
2023/07/28 07:31:24;;;;;;;6.30;5.70;;;18.90;99.90;;;;;;5002142;28;20037;-79
2023/07/28 07:33:50;;;;;;;9.63;7.25;;;18.90;99.90;;;;;;4988280;28;20397;-79
2023/07/28 07:36:16;;;;;;;11.55;7.00;;;18.90;99.90;;;;;;4992666;28;20040;-79
2023/07/28 07:38:41;;;;;;;8.90;5.97;;;19.00;99.90;;;;;;4987923;28;20091;-79
2023/07/28 07:41:08;;;;;;;6.97;6.28;;;19.10;99.90;;;;;;5020783;28;20053;-79
2023/07/28 07:43:34;;;;;;;9.43;7.15;;;19.10;99.90;;;;;;5007958;28;20061;-78
2023/07/28 07:45:59;;;;;;;10.30;8.45;;;19.10;99.90;;;;;;5003956;28;20125;-79
2023/07/28 07:48:25;;;;;;;8.20;6.63;;;19.20;99.90;;;;;;5003053;28;20119;-79
2023/07/28 07:50:51;;;;;;;8.60;7.60;;;19.20;99.90;;;;;;5023471;28;20033;-79
2023/07/28 07:53:17;;;;;;;10.40;8.88;;;19.30;99.90;;;;;;4988424;28;20518;-79
2023/07/28 07:55:42;;;;;;;7.70;6.15;;;19.30;99.90;;;;;;5006188;28;20068;-79
2023/07/28 07:58:08;;;;;;;11.30;8.88;;;19.40;99.90;;;;;;5005054;28;20033;-79
2023/07/28 08:00:34;;;;;;;10.05;8.40;;;19.50;99.90;;;;;;4973979;28;20113;-79
2023/07/28 08:02:59;;;;;;;8.68;6.93;;;19.70;99.90;;;;;;4989947;28;20125;-79
2023/07/28 08:05:25;;;;;;;9.77;6.45;;;19.90;99.90;;;;;;4987597;28;20021;-79
2023/07/28 08:07:50;;;;;;;6.07;4.65;;;20.00;99.90;;;;;;5002557;28;20175;-79
2023/07/28 08:10:16;;;;;;;5.53;4.32;;;20.10;99.90;;;;;;5023121;28;20385;-79
2023/07/28 08:12:44;;;;;;;4.40;3.67;;;20.20;99.90;;;;;;5002239;28;20445;-79
2023/07/28 08:15:10;;;;;;;6.18;4.00;;;20.20;99.90;;;;;;4991869;28;20396;-79
2023/07/28 08:17:35;;;;;;;3.28;2.97;;;20.20;99.90;;;;;;4989363;28;20022;-79
2023/07/28 08:20:01;;;;;;;5.65;3.83;;;20.40;99.90;;;;;;5000917;28;20030;-79
2023/07/28 08:22:26;;;;;;;3.65;3.30;;;20.20;99.90;;;;;;4990727;28;20043;-79
2023/07/28 08:24:52;;;;;;;4.30;3.90;;;20.30;99.90;;;;;;5001045;28;20026;-79
2023/07/28 08:27:18;;;;;;;3.50;2.97;;;20.50;99.90;;;;;;4992158;28;20037;-80
2023/07/28 08:29:43;;;;;;;6.05;3.58;;;20.60;99.90;;;;;;4985208;28;20033;-79
2023/07/28 08:32:10;;;;;;;4.13;2.70;;;20.60;99.90;;;;;;4312261;28;10000388;-79
2023/07/28 08:34:35;;;;;;;3.53;3.22;;;20.80;99.90;;;;;;4986472;28;20042;-79
2023/07/28 08:37:01;;;;;;;2.88;2.42;;;20.80;99.90;;;;;;4998615;28;20032;-79
2023/07/28 08:39:27;;;;;;;4.00;2.25;;;20.90;99.90;;;;;;4986851;28;20084;-79
2023/07/28 08:42:00;;;;;;;3.08;2.78;;;20.90;99.90;;;;;;4640821;28;10000460;-79
2023/07/28 08:44:26;;;;;;;2.92;2.53;;;20.80;99.90;;;;;;4988807;28;20374;-79
2023/07/28 08:46:52;;;;;;;2.38;2.17;;;20.90;99.90;;;;;;4999604;28;20538;-79
2023/07/28 08:49:17;;;;;;;2.65;1.92;;;21.00;99.90;;;;;;5000870;28;20033;-80
2023/07/28 08:51:51;;;;;;;1.95;1.52;;;21.10;99.90;;;;;;4987519;28;20033;-79
2023/07/28 08:54:17;;;;;;;2.67;1.73;;;21.30;99.90;;;;;;5002602;28;20559;-79
2023/07/28 08:56:43;;;;;;;1.67;1.58;;;21.40;99.90;;;;;;4971912;28;20072;-79
2023/07/28 08:59:09;;;;;;;1.50;1.40;;;21.40;99.90;;;;;;4990077;28;20039;-80
2023/07/28 09:01:43;;;;;;;1.58;1.30;;;21.50;99.90;;;;;;5001875;28;20496;-80
2023/07/28 09:04:11;;;;;;;2.92;1.38;;;21.70;99.90;;;;;;4982097;28;20105;-79
2023/07/28 09:06:37;;;;;;;1.80;1.38;;;22.00;99.90;;;;;;5001891;28;20045;-79
2023/07/28 09:09:06;;;;;;;3.03;1.23;;;22.20;99.90;;;;;;4991029;28;20037;-79
2023/07/28 09:11:32;;;;;;;1.25;1.15;;;22.20;99.90;;;;;;4984406;28;20374;-79
2023/07/28 09:14:00;;;;;;;1.02;0.93;;;22.20;99.90;;;;;;4999614;28;20088;-79
2023/07/28 09:16:25;;;;;;;1.27;0.90;;;22.10;99.90;;;;;;4988875;28;20038;-80
2023/07/28 09:18:54;;;;;;;2.78;1.48;;;22.10;99.90;;;;;;5017750;28;20037;-79
2023/07/28 09:21:20;;;;;;;1.50;1.08;;;22.20;99.90;;;;;;4988484;28;20145;-78
2023/07/28 09:23:46;;;;;;;1.27;1.17;;;22.20;99.90;;;;;;4985850;28;20034;-78
2023/07/28 09:26:12;;;;;;;1.60;1.50;;;22.60;99.90;;;;;;4985983;28;20079;-78
2023/07/28 09:28:41;;;;;;;1.08;0.90;;;23.00;99.90;;;;;;4983990;28;20050;-78
2023/07/28 09:31:07;;;;;;;1.02;1.00;;;22.60;99.90;;;;;;5000494;28;20487;-79
2023/07/28 09:33:34;;;;;;;1.40;1.30;;;22.60;99.90;;;;;;4999054;28;20033;-78
2023/07/28 09:36:10;;;;;;;3.72;1.55;;;22.50;99.90;;;;;;5003093;28;20539;-79
2023/07/28 09:38:37;;;;;;;1.58;1.30;;;22.30;99.90;;;;;;4993525;28;20029;-79
2023/07/28 09:41:06;;;;;;;1.80;1.40;;;22.10;99.90;;;;;;4997667;28;20501;-79
2023/07/28 09:43:32;;;;;;;1.73;1.63;;;22.30;99.90;;;;;;5007372;28;20125;-79
2023/07/28 09:45:57;;;;;;;1.98;1.85;;;22.40;99.90;;;;;;5025725;28;20113;-78
2023/07/28 09:48:23;;;;;;;2.03;1.55;;;22.10;99.90;;;;;;5024242;28;20408;-78
2023/07/28 09:50:48;;;;;;;2.88;1.65;;;22.20;99.90;;;;;;4990836;28;20402;-78
2023/07/28 09:53:14;;;;;;;2.10;1.90;;;22.10;99.90;;;;;;4989514;28;20048;-79
2023/07/28 09:55:43;;;;;;;1.63;1.52;;;22.20;99.90;;;;;;5008812;28;20441;-79
2023/07/28 09:58:10;;;;;;;4.30;2.00;;;22.20;99.90;;;;;;4975866;28;20557;-79
2023/07/28 10:00:36;;;;;;;3.78;1.88;;;22.20;99.90;;;;;;4990595;28;20502;-79
2023/07/28 10:03:03;;;;;;;3.08;2.00;;;22.80;99.90;;;;;;5003735;28;20049;-80
2023/07/28 10:05:29;;;;;;;2.30;2.10;;;22.70;99.90;;;;;;5023236;28;20115;-79
2023/07/28 10:07:54;;;;;;;1.95;1.60;;;22.60;99.90;;;;;;4992985;28;20060;-79
2023/07/28 10:10:20;;;;;;;4.05;1.90;;;22.50;99.90;;;;;;4992888;28;20041;-80
2023/07/28 10:12:47;;;;;;;3.83;1.92;;;22.80;99.90;;;;;;5008357;28;20033;-80
2023/07/28 10:15:17;;;;;;;3.28;2.83;;;23.30;99.90;;;;;;4993845;28;20030;-80
2023/07/28 10:17:48;;;;;;;2.42;2.13;;;23.60;99.90;;;;;;5023981;28;20044;-80
2023/07/28 10:20:34;;;;;;;2.25;2.05;;;23.90;99.90;;;;;;4974739;28;20048;-80
2023/07/28 10:23:20;;;;;;;6.85;2.33;;;24.00;99.90;;;;;;5003337;28;20034;-79
2023/07/28 10:25:46;;;;;;;;;;;24.00;99.90;;;;;;4989742;28;20021;-80
2023/07/28 10:28:34;;;;;;;2.60;1.98;;;24.20;99.90;;;;;;5007448;28;19986;-80
2023/07/28 10:31:01;;;;;;;3.35;2.10;;;24.20;99.90;;;;;;5016158;28;20397;-79
2023/07/28 10:33:30;;;;;;;2.97;2.63;;;24.50;99.90;;;;;;4990852;28;20164;-80
2023/07/28 10:35:57;;;;;;;2.55;2.35;;;24.70;99.90;;;;;;5006546;28;20394;-79
2023/07/28 10:38:32;;;;;;;2.28;2.10;;;25.10;99.90;;;;;;4983537;28;20033;-80
2023/07/28 10:41:16;;;;;;;3.88;2.72;;;25.10;99.90;;;;;;5008823;28;20112;-80
2023/07/28 10:43:44;;;;;;;2.78;2.58;;;25.40;99.90;;;;;;5007369;28;20511;-80
2023/07/28 10:46:10;;;;;;;2.78;2.40;;;25.70;99.90;;;;;;4987024;28;20026;-80
2023/07/28 10:48:37;;;;;;;3.05;1.95;;;25.40;99.90;;;;;;4986980;28;20425;-79
2023/07/28 10:51:03;;;;;;;3.35;2.25;;;25.70;99.90;;;;;;4989334;28;20069;-79
2023/07/28 10:53:28;;;;;;;3.50;2.13;;;25.90;99.90;;;;;;4992093;28;20033;-80
2023/07/28 10:55:54;;;;;;;6.88;2.10;;;26.20;99.90;;;;;;4314512;28;10000439;-79
2023/07/28 10:58:20;;;;;;;2.33;2.13;;;26.20;99.90;;;;;;4990183;28;20068;-80
2023/07/28 11:00:45;;;;;;;3.42;2.13;;;26.40;99.90;;;;;;5004220;28;20124;-80
2023/07/28 11:03:11;;;;;;;3.55;2.47;;;26.30;99.90;;;;;;5005166;28;20053;-79
2023/07/28 11:05:37;;;;;;;2.70;1.85;;;26.60;99.90;;;;;;4989501;28;20037;-80
2023/07/28 11:08:03;;;;;;;2.10;1.88;;;26.90;99.90;;;;;;4973491;28;20033;-80
2023/07/28 11:10:29;;;;;;;2.92;1.98;;;27.10;99.90;;;;;;5022364;28;20113;-80
2023/07/28 11:12:57;;;;;;;3.30;1.63;;;27.10;99.90;;;;;;5004673;28;20088;-80
2023/07/28 11:15:24;;;;;;;2.55;1.55;;;27.20;99.90;;;;;;5005449;28;20102;-80
2023/07/28 11:17:50;;;;;;;1.58;1.48;;;27.00;99.90;;;;;;5006513;28;20108;-80
2023/07/28 11:20:19;;;;;;;2.40;1.50;;;27.50;99.90;;;;;;4971900;28;20026;-80
2023/07/28 11:22:46;;;;;;;2.03;1.92;;;27.80;99.90;;;;;;5003377;28;20064;-81
2023/07/28 11:25:12;;;;;;;1.70;1.52;;;28.20;99.90;;;;;;4986969;28;20030;-81
2023/07/28 11:27:38;;;;;;;1.45;1.35;;;27.70;99.90;;;;;;4991713;28;20041;-81
2023/07/28 11:30:05;;;;;;;1.92;1.48;;;28.60;99.90;;;;;;5001233;28;20033;-81
2023/07/28 11:32:31;;;;;;;2.08;1.80;;;28.80;99.90;;;;;;5006779;28;20095;-81
2023/07/28 11:35:07;;;;;;;2.08;1.25;;;29.00;99.90;;;;;;4976314;28;20040;-81
2023/07/28 11:37:33;;;;;;;1.50;1.40;;;29.10;99.90;;;;;;4988222;28;20025;-82
2023/07/28 11:40:03;;;;;;;2.03;1.17;;;28.80;99.90;;;;;;4982627;28;20444;-82
2023/07/28 11:42:29;;;;;;;1.88;1.48;;;29.00;99.90;;;;;;5004214;28;20041;-82
2023/07/28 11:44:54;;;;;;;1.30;1.20;;;29.40;99.90;;;;;;4991194;28;20033;-82
2023/07/28 11:47:20;;;;;;;2.35;1.08;;;29.70;99.90;;;;;;4971598;28;20025;-82
2023/07/28 11:49:47;;;;;;;1.10;1.00;;;29.60;99.90;;;;;;4978655;28;20040;-82
2023/07/28 11:52:13;;;;;;;2.72;1.13;;;29.80;99.90;;;;;;4989748;28;20621;-82
2023/07/28 11:54:39;;;;;;;1.42;1.30;;;29.90;99.90;;;;;;5024400;28;20029;-83
2023/07/28 11:57:04;;;;;;;3.13;1.58;;;29.80;99.90;;;;;;5002675;28;20038;-82
2023/07/28 11:59:30;;;;;;;1.25;1.20;;;29.40;99.90;;;;;;4988631;28;20060;-86
2023/07/28 12:01:59;;;;;;;1.77;1.20;;;28.70;99.90;;;;;;4985926;28;20034;-85
2023/07/28 12:04:32;;;;;;;3.15;1.40;;;28.00;99.90;;;;;;5005059;28;20029;-86
2023/07/28 12:07:07;;;;;;;2.83;1.20;;;27.60;99.90;;;;;;4989297;28;20133;-86
2023/07/28 12:09:55;;;;;;;0.90;0.90;;;27.30;99.90;;;;;;5006280;28;20029;-85
2023/07/28 12:12:22;;;;;;;0.80;0.80;;;27.00;99.90;;;;;;4994605;28;20493;-85
2023/07/28 12:14:48;;;;;;;1.05;0.95;;;26.90;99.90;;;;;;4992195;28;20104;-86
2023/07/28 12:17:17;;;;;;;2.85;1.23;;;26.90;99.90;;;;;;4991469;28;20125;-85
2023/07/28 12:19:55;;;;;;;1.30;1.20;;;26.70;99.90;;;;;;5009650;28;20037;-85
2023/07/28 12:22:21;;;;;;;1.13;0.93;;;26.70;99.90;;;;;;5022484;28;20078;-85
2023/07/28 12:24:47;;;;;;;1.25;0.80;;;26.70;99.90;;;;;;4974851;28;20033;-85
2023/07/28 12:27:13;;;;;;;1.35;0.88;;;26.80;99.90;;;;;;5005776;28;20112;-85
2023/07/28 12:29:38;;;;;;;0.80;0.80;;;26.80;99.90;;;;;;5008336;28;20038;-86
2023/07/28 12:32:05;;;;;;;1.50;0.93;;;26.80;99.90;;;;;;5021797;28;20370;-85
2023/07/28 12:34:30;;;;;;;1.00;1.00;;;26.60;99.90;;;;;;4994007;28;20485;-86
2023/07/28 12:36:56;;;;;;;1.00;0.93;;;26.80;99.90;;;;;;4988551;28;20254;-85
2023/07/28 12:39:21;;;;;;;1.95;0.82;;;26.90;99.90;;;;;;4988236;28;20121;-85
2023/07/28 12:41:47;;;;;;;1.40;0.77;;;27.00;99.90;;;;;;5001752;28;20076;-84